createdAt,value
2022-12-15T00:02:26.381Z,56.83
2022-12-15T00:05:11.824Z,61.57
2022-12-15T00:07:57.020Z,61.70
2022-12-15T00:10:43.976Z,55.33
2022-12-15T00:13:30.593Z,59.70
2022-12-15T00:16:16.708Z,62.33
2022-12-15T00:19:02.235Z,63.23
2022-12-15T00:21:48.201Z,57.33
2022-12-15T00:24:33.659Z,61.43
2022-12-15T00:27:20.518Z,52.87
2022-12-15T00:30:05.974Z,62.33
2022-12-15T00:32:51.503Z,62.27
2022-12-15T00:35:36.838Z,63.40
2022-12-15T00:38:26.214Z,54.20
2022-12-15T00:40:58.916Z,58.00
2022-12-15T00:43:29.414Z,64.43
2022-12-15T00:46:17.423Z,58.87
2022-12-15T00:48:45.563Z,53.90
2022-12-15T00:51:13.469Z,54.50
2022-12-15T00:53:59.146Z,57.37
2022-12-15T00:56:45.165Z,55.67
2022-12-15T00:59:33.116Z,51.60
2022-12-15T01:02:19.977Z,51.60
2022-12-15T01:05:05.999Z,56.87
2022-12-15T01:07:51.950Z,55.43
2022-12-15T01:10:38.317Z,66.27
2022-12-15T01:13:24.860Z,52.57
2022-12-15T01:16:11.710Z,56.53
2022-12-15T01:18:57.210Z,61.30
2022-12-15T01:21:25.755Z,53.20
2022-12-15T01:23:54.371Z,55.43
2022-12-15T01:26:22.383Z,54.80
2022-12-15T01:28:50.260Z,56.10
2022-12-15T01:31:19.531Z,56.83
2022-12-15T01:33:47.550Z,53.40
2022-12-15T01:36:15.661Z,56.40
2022-12-15T01:38:45.084Z,54.97
2022-12-15T01:41:15.206Z,55.90
2022-12-15T01:43:43.165Z,50.90
2022-12-15T01:46:13.056Z,57.70
2022-12-15T01:48:45.867Z,58.93
2022-12-15T01:51:18.627Z,60.43
2022-12-15T01:53:54.547Z,58.67
2022-12-15T01:56:25.868Z,58.20
2022-12-15T01:58:57.248Z,58.17
2022-12-15T02:01:25.196Z,55.93
2022-12-15T02:03:54.675Z,49.27
2022-12-15T02:06:24.298Z,58.23
2022-12-15T02:08:54.848Z,58.40
2022-12-15T02:11:58.775Z,60.23
2022-12-15T02:14:44.608Z,53.97
2022-12-15T02:17:23.358Z,60.00
2022-12-15T02:20:42.788Z,60.90
2022-12-15T02:23:52.236Z,55.07
2022-12-15T02:26:50.084Z,58.07
2022-12-15T02:29:38.455Z,59.70
2022-12-15T02:32:10.654Z,65.07
2022-12-15T02:34:46.494Z,62.87
2022-12-15T02:37:18.428Z,62.13
2022-12-15T02:39:46.782Z,62.20
2022-12-15T02:42:15.288Z,62.23
2022-12-15T02:44:49.129Z,60.30
2022-12-15T02:47:26.335Z,59.73
2022-12-15T02:50:33.552Z,56.80
2022-12-15T02:53:14.245Z,58.20
2022-12-15T02:55:52.276Z,57.60
2022-12-15T02:58:28.448Z,60.97
2022-12-15T03:01:03.636Z,52.80
2022-12-15T03:03:36.213Z,61.77
2022-12-15T03:06:05.273Z,63.33
2022-12-15T03:08:33.325Z,56.33
2022-12-15T03:11:02.607Z,65.97
2022-12-15T03:13:30.848Z,65.77
2022-12-15T03:16:00.620Z,63.77
2022-12-15T03:18:28.814Z,59.33
2022-12-15T03:20:58.068Z,62.43
2022-12-15T03:23:26.157Z,65.97
2022-12-15T03:25:55.717Z,62.07
2022-12-15T03:28:24.457Z,63.23
2022-12-15T03:30:52.657Z,55.27
2022-12-15T03:33:21.524Z,60.00
2022-12-15T03:35:49.851Z,68.07
2022-12-15T03:38:19.830Z,108.40
2022-12-15T03:40:47.779Z,165.83
2022-12-15T03:43:15.709Z,118.90
2022-12-15T03:45:43.777Z,90.13
2022-12-15T03:48:11.844Z,69.33
2022-12-15T03:50:40.746Z,65.87
2022-12-15T03:53:09.046Z,64.63
2022-12-15T03:55:38.379Z,63.03
2022-12-15T03:58:06.383Z,69.90
2022-12-15T04:00:34.441Z,58.67
2022-12-15T04:03:02.548Z,60.83
2022-12-15T04:05:32.499Z,71.93
2022-12-15T04:08:01.714Z,60.97
2022-12-15T04:10:34.658Z,59.80
2022-12-15T04:13:06.236Z,61.73
2022-12-15T04:15:35.075Z,61.53
2022-12-15T04:18:03.941Z,63.33
2022-12-15T04:20:31.200Z,63.47
2022-12-15T04:22:59.747Z,60.33
2022-12-15T04:25:45.422Z,66.17
2022-12-15T04:28:32.423Z,60.97
2022-12-15T04:31:22.865Z,61.13
2022-12-15T04:34:11.469Z,64.80
2022-12-15T04:36:58.903Z,61.17
2022-12-15T04:39:44.678Z,63.40
2022-12-15T04:42:30.266Z,57.53
2022-12-15T04:45:21.176Z,60.17
2022-12-15T04:48:07.370Z,62.20
2022-12-15T04:50:53.772Z,62.63
2022-12-15T04:53:40.053Z,60.30
2022-12-15T04:56:29.375Z,69.23
2022-12-15T04:59:15.261Z,68.17
2022-12-15T05:02:02.703Z,68.87
2022-12-15T05:04:48.166Z,71.63
2022-12-15T05:07:34.023Z,67.07
2022-12-15T05:10:19.730Z,66.10
2022-12-15T05:13:05.045Z,66.33
2022-12-15T05:15:51.399Z,70.27
2022-12-15T05:18:38.763Z,71.23
2022-12-15T05:21:25.106Z,69.87
2022-12-15T05:24:10.960Z,69.10
2022-12-15T05:26:56.618Z,68.90
2022-12-15T05:29:42.336Z,66.13
2022-12-15T05:32:10.340Z,62.60
2022-12-15T05:34:39.713Z,70.13
2022-12-15T05:37:07.849Z,61.17
2022-12-15T05:39:36.693Z,66.73
2022-12-15T05:42:05.107Z,65.07
2022-12-15T05:44:33.043Z,56.73
2022-12-15T05:47:00.942Z,57.80
2022-12-15T05:49:28.862Z,71.63
2022-12-15T05:51:58.202Z,68.47
2022-12-15T05:54:26.209Z,71.80
2022-12-15T05:56:54.279Z,63.63
2022-12-15T05:59:22.359Z,69.63
2022-12-15T06:01:50.452Z,72.10
2022-12-15T06:04:18.564Z,70.30
2022-12-15T06:06:46.591Z,79.73
2022-12-15T06:09:15.893Z,79.53
2022-12-15T06:11:44.806Z,67.00
2022-12-15T06:14:13.160Z,72.00
2022-12-15T06:16:50.073Z,62.00
2022-12-15T06:19:19.284Z,59.83
2022-12-15T06:21:47.214Z,62.17
2022-12-15T06:24:16.495Z,64.37
2022-12-15T06:26:44.490Z,66.77
2022-12-15T06:29:13.740Z,64.43
2022-12-15T06:31:42.698Z,57.53
2022-12-15T06:34:13.705Z,68.60
2022-12-15T06:36:41.812Z,63.67
2022-12-15T06:39:13.090Z,67.67
2022-12-15T06:41:43.260Z,57.20
2022-12-15T06:44:14.946Z,66.03
2022-12-15T06:46:43.074Z,63.33
2022-12-15T06:49:11.255Z,59.23
2022-12-15T06:51:41.421Z,60.77
2022-12-15T06:54:11.216Z,62.40
2022-12-15T06:56:40.126Z,66.97
2022-12-15T06:59:09.588Z,61.33
2022-12-15T07:01:37.691Z,70.33
2022-12-15T07:04:06.199Z,60.60
2022-12-15T07:06:37.402Z,62.70
2022-12-15T07:09:08.381Z,60.57
2022-12-15T07:11:36.986Z,62.33
2022-12-15T07:14:05.026Z,71.97
2022-12-15T07:16:34.408Z,57.50
2022-12-15T07:19:02.552Z,59.87
2022-12-15T07:21:30.837Z,58.13
2022-12-15T07:23:59.802Z,63.63
2022-12-15T07:26:28.639Z,59.40
2022-12-15T07:28:56.959Z,53.87
2022-12-15T07:31:25.092Z,59.73
2022-12-15T07:33:54.581Z,67.20
2022-12-15T07:36:22.899Z,64.27
2022-12-15T07:38:51.836Z,61.03
2022-12-15T07:41:21.366Z,58.17
2022-12-15T07:43:49.546Z,61.53
2022-12-15T07:46:18.068Z,55.20
2022-12-15T07:48:50.451Z,57.10
2022-12-15T07:51:21.269Z,57.70
2022-12-15T07:53:51.151Z,62.33
2022-12-15T07:56:19.701Z,63.07
2022-12-15T07:58:47.642Z,59.63
2022-12-15T08:01:16.465Z,59.23
2022-12-15T08:03:45.029Z,57.73
2022-12-15T08:06:14.949Z,65.63
2022-12-15T08:08:50.719Z,78.40
2022-12-15T08:11:21.772Z,64.57
2022-12-15T08:14:10.550Z,57.80
2022-12-15T08:16:38.571Z,58.40
2022-12-15T08:19:08.895Z,65.90
2022-12-15T08:21:37.151Z,66.87
2022-12-15T08:24:07.727Z,70.67
2022-12-15T08:26:36.257Z,64.47
2022-12-15T08:29:48.749Z,61.03
2022-12-15T08:31:54.019Z,75.07
2022-12-15T08:34:22.222Z,67.97
2022-12-15T08:36:50.493Z,61.93
2022-12-15T08:39:20.421Z,58.77
2022-12-15T08:41:48.534Z,57.40
2022-12-15T08:44:16.991Z,64.17
2022-12-15T08:46:45.391Z,63.53
2022-12-15T08:49:17.932Z,76.27
2022-12-15T08:51:50.352Z,74.57
2022-12-15T08:54:21.209Z,67.47
2022-12-15T08:56:49.295Z,66.10
2022-12-15T08:59:17.487Z,60.43
2022-12-15T09:01:45.532Z,65.07
2022-12-15T09:04:13.638Z,69.80
2022-12-15T09:06:41.782Z,61.20
2022-12-15T09:09:13.494Z,59.73
2022-12-15T09:11:42.857Z,59.37
2022-12-15T09:14:10.827Z,65.57
2022-12-15T09:16:38.822Z,62.30
2022-12-15T09:19:08.202Z,70.33
2022-12-15T09:21:36.183Z,65.60
2022-12-15T09:24:04.722Z,64.53
2022-12-15T09:26:34.575Z,58.33
2022-12-15T09:29:04.095Z,67.73
2022-12-15T09:31:34.418Z,76.00
2022-12-15T09:34:03.806Z,71.23
2022-12-15T09:36:33.284Z,76.10
2022-12-15T09:39:02.935Z,74.17
2022-12-15T09:41:33.137Z,66.47
2022-12-15T09:44:06.094Z,59.90
2022-12-15T09:46:50.052Z,59.87
2022-12-15T09:49:31.144Z,55.67
2022-12-15T09:52:10.363Z,51.17
2022-12-15T09:54:41.761Z,47.13
2022-12-15T09:57:19.374Z,48.83
2022-12-15T10:00:03.399Z,50.40
2022-12-15T10:02:51.276Z,54.77
2022-12-15T10:08:23.468Z,47.60
2022-12-15T10:10:57.183Z,56.40
2022-12-15T10:13:32.373Z,68.03
2022-12-15T10:16:06.766Z,55.67
2022-12-15T10:18:41.404Z,51.00
2022-12-15T10:21:14.185Z,54.07
2022-12-15T10:23:42.617Z,43.73
2022-12-15T10:26:20.858Z,53.00
2022-12-15T10:29:03.769Z,58.27
2022-12-15T10:31:41.659Z,55.97
2022-12-15T10:34:15.152Z,56.00
2022-12-15T10:36:50.972Z,47.87
2022-12-15T10:39:19.079Z,66.90
2022-12-15T10:41:47.296Z,59.97
2022-12-15T10:44:31.883Z,66.13
2022-12-15T10:47:10.705Z,60.03
2022-12-15T10:49:38.851Z,65.80
2022-12-15T10:52:09.697Z,68.87
2022-12-15T10:54:44.749Z,80.57
2022-12-15T10:57:18.380Z,61.03
2022-12-15T10:59:46.304Z,60.63
2022-12-15T11:02:44.026Z,55.93
2022-12-15T11:05:18.035Z,58.27
2022-12-15T11:07:48.048Z,62.40
2022-12-15T11:10:20.248Z,53.90
2022-12-15T11:13:10.389Z,52.03
2022-12-15T11:18:39.725Z,55.20
2022-12-15T11:21:13.047Z,63.43
2022-12-15T11:24:00.554Z,59.30
2022-12-15T11:26:48.968Z,56.70
2022-12-15T11:29:28.620Z,59.80
2022-12-15T11:32:01.441Z,58.97
2022-12-15T11:34:37.627Z,61.70
2022-12-15T11:37:38.180Z,66.27
2022-12-15T11:40:20.680Z,64.80
2022-12-15T11:43:02.014Z,62.17
2022-12-15T11:45:41.473Z,65.60
2022-12-15T11:48:14.609Z,64.90
2022-12-15T11:50:53.716Z,63.80
2022-12-15T11:53:46.512Z,63.23
2022-12-15T11:56:26.134Z,63.33
2022-12-15T11:59:31.532Z,57.07
2022-12-15T12:02:16.472Z,64.67
2022-12-15T12:04:57.672Z,55.10
2022-12-15T12:07:41.925Z,57.13
2022-12-15T12:10:24.526Z,56.67
2022-12-15T12:13:01.729Z,56.80
2022-12-15T12:15:36.666Z,57.93
2022-12-15T12:18:14.458Z,63.93
2022-12-15T12:20:52.321Z,56.60
2022-12-15T12:23:29.156Z,62.10
2022-12-15T12:26:03.719Z,59.07
2022-12-15T12:28:38.372Z,63.23
2022-12-15T12:31:12.270Z,51.63
2022-12-15T12:33:45.601Z,50.13
2022-12-15T12:36:17.485Z,50.07
2022-12-15T12:38:50.796Z,54.37
2022-12-15T12:41:28.512Z,48.80
2022-12-15T12:43:58.940Z,54.03
2022-12-15T12:46:33.160Z,59.77
2022-12-15T12:49:06.202Z,52.80
2022-12-15T12:51:37.247Z,49.33
2022-12-15T12:54:40.411Z,51.30
2022-12-15T12:57:39.486Z,55.03
2022-12-15T13:00:21.178Z,54.07
2022-12-15T13:03:19.204Z,63.70
2022-12-15T13:05:52.143Z,52.30
2022-12-15T13:08:51.502Z,54.77
2022-12-15T13:12:00.865Z,51.63
2022-12-15T13:14:48.317Z,55.97
2022-12-15T13:17:28.179Z,54.70
2022-12-15T13:20:23.409Z,56.00
2022-12-15T13:22:52.170Z,57.03
2022-12-15T13:25:42.525Z,56.50
2022-12-15T13:28:30.449Z,61.30
2022-12-15T13:31:38.666Z,60.37
2022-12-15T13:34:16.366Z,60.60
2022-12-15T13:36:54.682Z,58.27
2022-12-15T13:39:56.361Z,62.90
2022-12-15T13:42:45.315Z,63.13
2022-12-15T13:45:36.561Z,62.83
2022-12-15T13:48:16.852Z,62.10
2022-12-15T13:50:56.384Z,60.97
2022-12-15T13:53:26.619Z,64.13
2022-12-15T13:56:05.150Z,66.13
2022-12-15T13:58:40.404Z,67.37
2022-12-15T14:01:21.173Z,63.20
2022-12-15T14:04:07.078Z,60.57
2022-12-15T14:06:45.063Z,64.03
2022-12-15T14:09:16.160Z,74.13
2022-12-15T14:11:53.166Z,72.37
2022-12-15T14:14:25.747Z,71.40
2022-12-15T14:16:58.390Z,68.37
2022-12-15T14:19:26.977Z,62.73
2022-12-15T14:21:57.920Z,48.47
2022-12-15T14:27:28.542Z,54.07
2022-12-15T14:30:18.887Z,48.17
2022-12-15T14:32:50.173Z,50.37
2022-12-15T14:35:23.994Z,58.60
2022-12-15T14:37:56.573Z,54.33
2022-12-15T14:43:21.194Z,49.33
2022-12-15T14:45:55.120Z,49.77
2022-12-15T14:48:44.824Z,56.97
2022-12-15T14:51:15.103Z,58.83
2022-12-15T14:53:49.917Z,62.40
2022-12-15T14:56:30.343Z,47.93
2022-12-15T14:59:03.668Z,48.67
2022-12-15T15:01:36.328Z,49.40
2022-12-15T15:03:09.090Z,54.53
2022-12-15T15:03:11.090Z,51.80
2022-12-15T15:04:06.385Z,42.90
2022-12-15T15:06:37.324Z,44.53
2022-12-15T15:09:22.056Z,48.37
2022-12-15T15:11:53.421Z,46.63
2022-12-15T15:14:25.810Z,49.77
2022-12-15T15:17:09.834Z,51.30
2022-12-15T15:19:40.119Z,52.73
2022-12-15T15:22:35.020Z,44.83
2022-12-15T15:25:20.390Z,48.67
2022-12-15T15:27:48.317Z,51.37
2022-12-15T15:30:19.796Z,60.20
2022-12-15T15:32:53.174Z,48.30
2022-12-15T15:35:21.590Z,62.27
2022-12-15T15:37:49.605Z,62.77
2022-12-15T15:40:19.204Z,62.37
2022-12-15T15:42:48.990Z,55.60
2022-12-15T15:45:17.121Z,65.77
2022-12-15T15:47:49.582Z,67.20
2022-12-15T15:50:23.613Z,64.13
2022-12-15T15:52:52.120Z,67.17
2022-12-15T15:55:26.999Z,61.43
2022-12-15T15:57:55.284Z,60.53
2022-12-15T16:00:25.722Z,75.10
2022-12-15T16:02:54.572Z,70.13
2022-12-15T16:05:22.776Z,71.23
2022-12-15T16:07:51.285Z,69.30
2022-12-15T16:10:21.857Z,62.77
2022-12-15T16:12:52.535Z,58.93
2022-12-15T16:15:23.017Z,51.43
2022-12-15T16:17:51.276Z,58.43
2022-12-15T16:20:21.151Z,59.80
2022-12-15T16:22:51.870Z,57.33
2022-12-15T16:25:27.141Z,62.90
2022-12-15T16:27:55.048Z,54.60
2022-12-15T16:30:25.946Z,61.13
2022-12-15T16:32:54.411Z,58.17
2022-12-15T16:35:26.908Z,62.60
2022-12-15T16:37:54.854Z,56.47
2022-12-15T16:40:27.107Z,54.20
2022-12-15T16:43:00.919Z,62.13
2022-12-15T16:45:32.157Z,60.93
2022-12-15T16:48:00.325Z,68.23
2022-12-15T16:50:31.876Z,58.73
2022-12-15T16:53:00.185Z,61.13
2022-12-15T16:55:35.072Z,61.37
2022-12-15T16:58:07.967Z,63.90
2022-12-15T17:00:36.704Z,62.27
2022-12-15T17:03:07.217Z,61.57
2022-12-15T17:05:37.356Z,64.67
2022-12-15T17:08:09.604Z,67.10
2022-12-15T17:10:38.894Z,64.70
2022-12-15T17:13:17.560Z,62.30
2022-12-15T17:15:45.619Z,72.70
2022-12-15T17:18:14.895Z,100.93
2022-12-15T17:20:44.175Z,87.00
2022-12-15T17:23:16.665Z,97.37
2022-12-15T17:26:19.924Z,96.47
2022-12-15T17:28:37.518Z,96.90
2022-12-15T17:31:05.839Z,80.93
2022-12-15T17:33:36.037Z,73.77
2022-12-15T17:36:09.405Z,62.70
2022-12-15T17:38:37.372Z,74.27
2022-12-15T17:41:06.888Z,71.20
2022-12-15T17:43:36.190Z,67.17
2022-12-15T17:46:04.465Z,71.53
2022-12-15T17:48:32.731Z,74.80
2022-12-15T17:51:00.946Z,64.93
2022-12-15T17:53:30.452Z,70.53
2022-12-15T17:55:58.816Z,74.57
2022-12-15T17:58:28.193Z,69.07
2022-12-15T18:00:57.257Z,72.10
2022-12-15T18:03:25.331Z,66.87
2022-12-15T18:05:54.167Z,73.83
2022-12-15T18:08:24.344Z,68.60
2022-12-15T18:10:55.266Z,65.97
2022-12-15T18:13:25.467Z,65.60
2022-12-15T18:15:57.249Z,68.77
2022-12-15T18:18:25.989Z,75.67
2022-12-15T18:21:00.194Z,72.67
2022-12-15T18:23:32.089Z,82.00
2022-12-15T18:26:03.184Z,86.33
2022-12-15T18:28:33.282Z,88.93
2022-12-15T18:31:07.766Z,104.23
2022-12-15T18:33:35.875Z,95.80
2022-12-15T18:36:04.050Z,104.20
2022-12-15T18:38:32.070Z,100.73
2022-12-15T18:41:01.403Z,76.30
2022-12-15T18:43:32.485Z,87.13
2022-12-15T18:46:02.256Z,75.33
2022-12-15T18:48:32.029Z,82.77
2022-12-15T18:51:01.725Z,86.97
2022-12-15T18:53:32.713Z,86.53
2022-12-15T18:56:02.526Z,84.13
2022-12-15T18:58:32.406Z,90.97
2022-12-15T19:01:03.174Z,80.57
2022-12-15T19:03:32.572Z,84.83
2022-12-15T19:06:02.769Z,85.70
2022-12-15T19:08:36.056Z,94.40
2022-12-15T19:11:09.695Z,85.73
2022-12-15T19:13:39.390Z,89.20
2022-12-15T19:16:15.781Z,97.10
2022-12-15T19:19:01.488Z,86.80
2022-12-15T19:21:50.232Z,104.73
2022-12-15T19:24:40.569Z,87.90
2022-12-15T19:27:11.961Z,87.13
2022-12-15T19:29:41.045Z,90.80
2022-12-15T19:32:10.793Z,88.07
2022-12-15T19:34:38.833Z,107.57
2022-12-15T19:37:11.767Z,99.40
2022-12-15T19:39:39.842Z,100.17
2022-12-15T19:42:17.951Z,101.53
2022-12-15T19:44:45.942Z,86.93
2022-12-15T19:47:16.151Z,86.37
2022-12-15T19:49:44.841Z,91.73
2022-12-15T19:52:14.859Z,88.80
2022-12-15T19:54:43.772Z,110.73
2022-12-15T19:57:13.877Z,86.60
2022-12-15T19:59:42.123Z,96.03
2022-12-15T20:02:18.773Z,100.57
2022-12-15T20:04:53.961Z,92.90
2022-12-15T20:07:28.091Z,102.33
2022-12-15T20:09:58.165Z,100.30
2022-12-15T20:12:27.304Z,104.70
2022-12-15T20:14:55.365Z,100.57
2022-12-15T20:17:24.642Z,106.83
2022-12-15T20:19:52.856Z,102.40
2022-12-15T20:22:20.757Z,102.83
2022-12-15T20:24:48.910Z,93.20
2022-12-15T20:27:19.280Z,105.80
2022-12-15T20:29:47.495Z,100.57
2022-12-15T20:32:17.081Z,86.80
2022-12-15T20:34:46.529Z,85.97
2022-12-15T20:37:24.625Z,129.17
2022-12-15T20:39:57.380Z,180.33
2022-12-15T20:42:26.122Z,163.53
2022-12-15T20:44:54.180Z,155.77
2022-12-15T20:47:24.877Z,102.83
2022-12-15T20:49:55.915Z,93.07
2022-12-15T20:52:26.505Z,133.07
2022-12-15T20:54:55.437Z,125.13
2022-12-15T20:57:23.397Z,137.10
2022-12-15T20:59:51.361Z,131.40
2022-12-15T21:02:21.155Z,119.43
2022-12-15T21:04:49.862Z,105.90
2022-12-15T21:07:19.754Z,118.40
2022-12-15T21:09:47.767Z,111.67
2022-12-15T21:12:19.359Z,111.23
2022-12-15T21:14:47.401Z,148.30
2022-12-15T21:17:16.775Z,132.93
2022-12-15T21:19:45.241Z,150.00
2022-12-15T21:22:20.424Z,142.23
2022-12-15T21:24:49.914Z,149.80
2022-12-15T21:27:18.561Z,127.87
2022-12-15T21:29:52.340Z,126.77
2022-12-15T21:32:20.875Z,114.83
2022-12-15T21:34:49.944Z,105.20
2022-12-15T21:37:27.579Z,101.93
2022-12-15T21:39:56.527Z,98.47
2022-12-15T21:42:24.808Z,79.53
2022-12-15T21:44:52.725Z,91.87
2022-12-15T21:47:25.775Z,86.03
2022-12-15T21:49:53.089Z,84.10
2022-12-15T21:52:26.614Z,84.47
2022-12-15T21:54:54.784Z,81.40
2022-12-15T21:57:22.728Z,89.47
2022-12-15T21:59:50.678Z,88.80
2022-12-15T22:02:25.678Z,86.27
2022-12-15T22:04:54.972Z,93.73
2022-12-15T22:07:24.504Z,95.30
2022-12-15T22:09:52.463Z,92.90
2022-12-15T22:12:23.677Z,88.00
2022-12-15T22:14:52.063Z,98.70
2022-12-15T22:17:22.535Z,95.90
2022-12-15T22:19:50.723Z,94.53
2022-12-15T22:22:18.654Z,110.93
2022-12-15T22:24:48.102Z,108.97
2022-12-15T22:27:20.370Z,115.23
2022-12-15T22:29:48.722Z,108.43
2022-12-15T22:32:17.711Z,104.07
2022-12-15T22:34:45.686Z,102.23
2022-12-15T22:37:13.631Z,93.47
2022-12-15T22:39:41.682Z,96.93
2022-12-15T22:42:16.009Z,102.77
2022-12-15T22:44:44.216Z,98.27
2022-12-15T22:47:12.331Z,95.87
2022-12-15T22:49:41.340Z,86.17
2022-12-15T22:52:17.418Z,80.93
2022-12-15T22:54:46.322Z,95.27
2022-12-15T22:57:21.640Z,96.37
2022-12-15T22:59:52.958Z,85.70
2022-12-15T23:02:22.733Z,82.77
2022-12-15T23:04:50.727Z,75.73
2022-12-15T23:07:20.032Z,87.07
2022-12-15T23:09:48.427Z,86.40
2022-12-15T23:12:16.789Z,78.83
2022-12-15T23:15:02.126Z,79.50
2022-12-15T23:17:30.046Z,81.57
2022-12-15T23:19:58.071Z,87.57
2022-12-15T23:22:26.175Z,78.37
2022-12-15T23:24:54.122Z,85.67
2022-12-15T23:27:23.382Z,83.93
2022-12-15T23:29:51.324Z,83.47
2022-12-15T23:32:19.803Z,82.63
2022-12-15T23:34:47.799Z,78.67
2022-12-15T23:37:16.255Z,81.43
2022-12-15T23:39:44.462Z,75.57
2022-12-15T23:42:12.403Z,92.03
2022-12-15T23:44:42.641Z,85.20
2022-12-15T23:47:11.267Z,90.20
2022-12-15T23:49:41.002Z,90.03
2022-12-15T23:52:09.736Z,88.80
2022-12-15T23:54:37.635Z,84.70
2022-12-15T23:57:05.583Z,82.03
2022-12-15T23:59:33.551Z,87.83
